map of OSF home
OSF - Airport
Location
City:  Moscow, Moskovskaya, Russian Federation (Russia)
Near (Alt.):Podolsk
Name:Ostafyevo International Airport
ICAO:UUMO
IATA:OSF

Details
Type:Airport (Aerodrome, Airfield)
Use:Public/Civil, International (customs port of entry)
Latitude:5530'27"N (55.507500)
Longitude:3730'15"E (37.504167)
Elevation:564 ft (172 m)
Variation:11.20E (WMM2015v2 magnetic declination)
0.15 annual change
Runways:1
Longest:6726 × 157 ft (2050 × 48 m), paved

Weather
METAR:UUMO 041400Z 18003MPS 2500 BR OVC003 03/03 Q1018 R26/290050 NOSIG RMK QBB100 QFE748/0997

Related Locations
Nearby:
Farthest:CHT: 10735 mi / 17276 km
Waitangi [Tuuta], CIT, NZ

Find:

   beyond  
but within

Other Information
Maps:
NOTAMs:
Links:
Sources:

  
  • flag of Russian Federation (Russia)
  • flag of Moskovskaya
  • flag of Moscow
  

Airport Diagram

Airport diagram for OSF

Airport diagram PDF from AIP of the Russian Federation

Sectional Chart

Flight Planning
at skyvector.com

Satellite Image

Google Maps Satellite view

Yandex Maps Satellite view


 

Copyright © 2004-2019 Karl L. Swartz. All rights reserved.
The Great Circle Mapper name and logo are trademarks of the Great Circle Mapper.
All other trademarks mentioned herein belong to their respective owners.
Please see credits for attibutions and further copyright information.

  Follow gcmap on Facebook Follow gcmap on Twitter GCmap on LinkedIn

hCard Microformat

Geo Microformat